Time;durP1;ratioP1;P1;durP2;ratioP2;P2;SDS_P1;SDS_P2;PMS_P1;PMS_P2;Temp;Humidity;BMP_temperature;BMP_pressure;BME280_temperature;BME280_humidity;BME280_pressure;Samples;Min_cycle;Max_cycle;Signal;HPM_P1;HPM_P2
2022/04/30 00:01:57;;;;;;;4.07;2.40;;;;;;;11.57;42.50;99455.81;5053944;28;20204;-60
2022/04/30 00:04:43;;;;;;;5.30;2.33;;;;;;;11.43;43.47;99454.88;5054249;28;20036;-58
2022/04/30 00:07:28;;;;;;;6.47;2.42;;;;;;;11.39;43.02;99453.34;5053035;28;20047;-58
2022/04/30 00:10:13;;;;;;;5.13;2.67;;;;;;;11.32;43.00;99452.06;5054377;28;20048;-59
2022/04/30 00:12:57;;;;;;;4.82;2.67;;;;;;;11.39;43.12;99445.47;5053912;28;20047;-59
2022/04/30 00:15:42;;;;;;;3.58;2.53;;;;;;;11.42;43.41;99449.72;5052784;28;20052;-58
2022/04/30 00:18:27;;;;;;;6.78;2.70;;;;;;;11.36;42.77;99450.09;5054331;28;20048;-58
2022/04/30 00:21:12;;;;;;;4.75;2.65;;;;;;;11.32;43.02;99446.81;5054038;28;20037;-60
2022/04/30 00:23:56;;;;;;;4.25;2.53;;;;;;;11.33;42.80;99448.47;5053446;28;20061;-59
2022/04/30 00:26:41;;;;;;;3.95;2.70;;;;;;;11.33;42.95;99443.22;5052549;28;20467;-58
2022/04/30 00:29:30;;;;;;;4.68;2.85;;;;;;;11.34;42.91;99447.56;5053552;28;20054;-59
2022/04/30 00:32:17;;;;;;;5.93;2.70;;;;;;;11.43;42.64;99447.00;5052493;28;20071;-58
2022/04/30 00:35:02;;;;;;;4.82;2.67;;;;;;;11.46;42.48;99435.44;5053459;28;20045;-58
2022/04/30 00:37:47;;;;;;;4.63;2.67;;;;;;;11.48;42.48;99441.47;5052639;28;20220;-60
2022/04/30 00:40:32;;;;;;;5.93;2.95;;;;;;;11.38;42.32;99441.19;5053431;28;20080;-59
2022/04/30 00:43:17;;;;;;;5.88;3.25;;;;;;;11.44;42.54;99440.78;5065798;28;20376;-59
2022/04/30 00:46:01;;;;;;;3.63;2.40;;;;;;;11.26;44.20;99442.75;5053324;28;20357;-58
2022/04/30 00:48:47;;;;;;;4.32;2.42;;;;;;;11.20;44.29;99436.13;5053613;28;20107;-58
2022/04/30 00:51:36;;;;;;;6.88;2.97;;;;;;;11.14;44.19;99436.50;5053054;28;20036;-58
2022/04/30 00:54:24;;;;;;;4.43;2.58;;;;;;;11.18;43.86;99426.69;5053097;28;20068;-58
2022/04/30 00:57:16;;;;;;;3.28;2.22;;;;;;;11.14;44.06;99430.41;5051845;28;20052;-59
2022/04/30 01:00:01;;;;;;;8.40;2.65;;;;;;;11.00;45.48;99424.19;5052485;28;20041;-59
2022/04/30 01:02:46;;;;;;;6.85;2.50;;;;;;;10.77;46.81;99423.78;5052757;28;20393;-59
2022/04/30 01:05:51;;;;;;;4.38;2.72;;;;;;;10.69;46.75;99426.88;5052954;28;20064;-58
2022/04/30 01:08:37;;;;;;;3.40;2.65;;;;;;;10.47;48.32;99427.28;5052939;28;20036;-59
2022/04/30 01:11:22;;;;;;;6.10;2.47;;;;;;;10.56;48.19;99423.28;5052862;28;20468;-59
2022/04/30 01:14:07;;;;;;;3.17;2.55;;;;;;;10.78;47.60;99422.88;5051716;28;20044;-58
2022/04/30 01:16:52;;;;;;;4.85;2.35;;;;;;;10.77;47.47;99415.09;5052608;28;20068;-59
2022/04/30 01:19:39;;;;;;;4.43;2.55;;;;;;;10.80;47.44;99423.63;5052853;28;20052;-59
2022/04/30 01:22:30;;;;;;;5.85;2.40;;;;;;;10.59;47.31;99420.50;5052890;28;20041;-59
2022/04/30 01:25:16;;;;;;;7.80;2.63;;;;;;;10.54;48.52;99415.50;5051469;28;20041;-59
2022/04/30 01:28:01;;;;;;;4.07;2.92;;;;;;;10.63;48.34;99416.75;5052076;28;20045;-60
2022/04/30 01:30:46;;;;;;;4.93;3.05;;;;;;;10.46;48.53;99415.09;5051321;28;20048;-61
2022/04/30 01:39:46;;;;;;;3.88;2.50;;;;;;;10.46;48.59;99405.47;5065492;28;19947;-61
2022/04/30 01:42:35;;;;;;;4.50;2.70;;;;;;;10.38;48.11;99409.44;5052252;28;20041;-59
2022/04/30 01:45:20;;;;;;;4.40;2.72;;;;;;;10.58;47.94;99403.91;5052363;28;20059;-59
2022/04/30 01:48:08;;;;;;;7.78;2.85;;;;;;;10.64;47.15;99396.63;5052122;28;20045;-59
2022/04/30 01:50:54;;;;;;;4.25;2.53;;;;;;;10.32;48.09;99393.16;5051663;28;20044;-59
2022/04/30 01:53:40;;;;;;;4.10;2.55;;;;;;;10.32;47.97;99397.53;5052264;28;20040;-58
2022/04/30 01:56:24;;;;;;;3.75;2.40;;;;;;;10.26;48.55;99390.88;5052016;28;20467;-59
2022/04/30 01:59:17;;;;;;;4.72;2.47;;;;;;;10.10;49.26;99394.38;5025461;28;20036;-59
2022/04/30 02:02:03;;;;;;;6.10;2.38;;;;;;;9.79;50.60;99393.47;5036858;28;20314;-59
2022/04/30 02:04:49;;;;;;;4.38;2.05;;;;;;;9.91;50.74;99384.09;5052027;28;20388;-59
2022/04/30 02:07:39;;;;;;;6.20;2.78;;;;;;;10.10;48.79;99381.28;5052039;28;20037;-59
2022/04/30 02:10:24;;;;;;;5.57;2.80;;;;;;;10.19;47.98;99379.06;5051813;28;20064;-58
2022/04/30 02:13:10;;;;;;;7.60;2.50;;;;;;;10.01;49.04;99380.94;5051800;28;20527;-58
2022/04/30 02:15:56;;;;;;;3.58;2.38;;;;;;;9.80;49.25;99376.84;5051023;28;20044;-58
2022/04/30 02:18:41;;;;;;;3.53;2.38;;;;;;;9.68;49.80;99386.22;5051373;28;20055;-58
2022/04/30 02:21:29;;;;;;;7.07;2.63;;;;;;;9.70;49.67;99375.66;5064986;28;20460;-58
2022/04/30 02:24:15;;;;;;;4.45;2.85;;;;;;;9.91;49.80;99372.78;5050822;28;20476;-58
2022/04/30 02:27:01;;;;;;;4.95;2.25;;;;;;;10.01;49.72;99370.47;5050633;28;20041;-58
2022/04/30 02:29:46;;;;;;;5.75;2.92;;;;;;;9.97;49.90;99370.66;5050735;28;20465;-58
2022/04/30 02:32:51;;;;;;;8.43;2.80;;;;;;;10.07;49.54;99372.78;5051870;28;20037;-61
2022/04/30 02:35:39;;;;;;;5.07;3.28;;;;;;;10.04;48.21;99363.31;5051820;28;20059;-58
2022/04/30 02:38:26;;;;;;;4.65;2.88;;;;;;;9.97;48.83;99365.41;5051676;28;20032;-58
2022/04/30 02:41:11;;;;;;;4.93;2.72;;;;;;;10.01;48.86;99363.47;5054593;28;20486;-58
2022/04/30 02:43:57;;;;;;;4.80;3.13;;;;;;;10.03;49.22;99358.16;5055498;28;20487;-58
2022/04/30 02:46:42;;;;;;;6.25;3.38;;;;;;;10.08;48.58;99356.97;5070331;28;20037;-59
2022/04/30 02:49:27;;;;;;;4.65;2.95;;;;;;;9.94;49.08;99352.50;5043549;28;20052;-60
2022/04/30 02:52:11;;;;;;;4.38;3.28;;;;;;;9.85;49.13;99347.81;5036227;28;20053;-59
2022/04/30 02:54:56;;;;;;;6.65;3.50;;;;;;;9.98;48.77;99348.81;5035842;28;20045;-59
2022/04/30 03:00:47;;;;;;;5.97;3.78;;;;;;;10.06;48.07;99345.75;5049194;28;20385;-60
2022/04/30 03:03:51;;;;;;;8.77;3.92;;;;;;;10.13;47.69;99348.00;5045587;28;20103;-59
2022/04/30 03:06:36;;;;;;;9.13;3.15;;;;;;;10.16;48.15;99342.59;5049598;28;20053;-59
2022/04/30 03:09:21;;;;;;;4.88;3.13;;;;;;;10.07;47.90;99346.59;5067653;28;20068;-59
2022/04/30 03:12:08;;;;;;;4.30;3.42;;;;;;;10.18;47.56;99348.59;5035185;28;20433;-59
2022/04/30 03:14:52;;;;;;;5.75;3.17;;;;;;;10.18;47.64;99344.19;5034133;28;20041;-59
2022/04/30 03:23:44;;;;;;;5.35;3.13;;;;;;;9.95;49.38;99343.75;5021109;28;20045;-59
2022/04/30 03:26:29;;;;;;;8.35;3.47;;;;;;;9.99;49.12;99344.38;5034243;28;20060;-59
2022/04/30 03:29:15;;;;;;;6.18;3.40;;;;;;;10.01;48.30;99336.44;5047752;28;20041;-58
2022/04/30 03:32:01;;;;;;;6.53;3.25;;;;;;;9.95;48.20;99343.75;5034637;28;20392;-59
2022/04/30 03:34:47;;;;;;;7.05;3.35;;;;;;;10.02;48.03;99343.38;5034867;28;20037;-59
2022/04/30 03:37:32;;;;;;;7.28;3.38;;;;;;;9.97;48.17;99346.28;5061777;28;20033;-59
2022/04/30 03:40:18;;;;;;;8.73;3.72;;;;;;;10.07;48.15;99346.59;5034411;28;20060;-59
2022/04/30 03:43:03;;;;;;;7.30;3.88;;;;;;;10.12;48.18;99352.38;5047619;28;20037;-59
2022/04/30 03:45:49;;;;;;;6.47;3.80;;;;;;;10.15;48.41;99357.44;5040984;28;20468;-60
2022/04/30 03:48:34;;;;;;;6.18;3.65;;;;;;;9.99;49.72;99349.63;5053501;28;20043;-59
2022/04/30 03:51:23;;;;;;;5.78;3.50;;;;;;;10.02;49.77;99351.25;5054173;28;20049;-60
2022/04/30 03:54:07;;;;;;;7.00;3.92;;;;;;;10.05;49.74;99348.44;5053253;28;20108;-59
2022/04/30 03:56:52;;;;;;;8.82;3.35;;;;;;;9.97;49.30;99349.72;5054159;28;20095;-59
2022/04/30 03:59:36;;;;;;;5.75;3.42;;;;;;;10.03;48.97;99355.53;5053302;28;20063;-59
2022/04/30 04:02:23;;;;;;;6.25;3.53;;;;;;;10.12;48.45;99352.38;5053985;28;20053;-59
2022/04/30 04:05:10;;;;;;;7.47;3.10;;;;;;;10.21;48.17;99356.25;5053895;28;20256;-59
2022/04/30 04:07:59;;;;;;;5.00;2.90;;;;;;;10.17;48.19;99354.72;5053248;28;20037;-60
2022/04/30 04:10:44;;;;;;;5.30;3.20;;;;;;;10.29;47.63;99361.06;5054028;28;20037;-59
2022/04/30 04:19:35;;;;;;;5.07;3.15;;;;;;;10.53;47.33;99356.19;5053803;28;20361;-59
2022/04/30 04:22:19;;;;;;;6.65;3.17;;;;;;;10.46;47.83;99360.94;5053605;28;20737;-59
2022/04/30 04:28:08;;;;;;;5.15;3.35;;;;;;;10.62;47.64;99359.19;5053284;28;20041;-59
2022/04/30 04:30:53;;;;;;;6.53;3.53;;;;;;;10.63;47.54;99359.09;5052568;28;20487;-58
2022/04/30 04:33:38;;;;;;;7.03;3.42;;;;;;;10.78;46.98;99357.34;5052275;28;20185;-58
2022/04/30 04:36:23;;;;;;;6.10;3.13;;;;;;;10.90;46.57;99358.38;5053294;28;20433;-59
2022/04/30 04:39:12;;;;;;;5.40;3.10;;;;;;;11.00;46.09;99360.47;5053207;28;20381;-58
2022/04/30 04:41:57;;;;;;;6.07;3.00;;;;;;;10.94;46.75;99359.03;5053293;28;20036;-59
2022/04/30 04:44:42;;;;;;;6.15;3.50;;;;;;;11.14;47.07;99365.69;5053416;28;20048;-59
2022/04/30 04:47:28;;;;;;;4.35;3.00;;;;;;;11.06;48.72;99357.44;5052268;28;20048;-59
2022/04/30 04:50:13;;;;;;;5.57;2.63;;;;;;;11.21;48.76;99364.38;5053055;28;20033;-58
2022/04/30 04:52:57;;;;;;;5.35;3.13;;;;;;;11.40;47.25;99358.00;5053186;28;20352;-59
2022/04/30 04:55:43;;;;;;;5.20;3.22;;;;;;;11.22;47.85;99365.22;5024209;28;20036;-61
2022/04/30 04:58:27;;;;;;;7.68;3.45;;;;;;;11.40;48.88;99365.00;5051968;28;20045;-58
2022/04/30 05:01:12;;;;;;;6.45;2.80;;;;;;;11.45;49.49;99361.16;5065734;28;20037;-59
2022/04/30 05:03:57;;;;;;;6.88;3.22;;;;;;;11.73;47.96;99363.81;5052161;28;20048;-59
2022/04/30 05:06:42;;;;;;;5.78;3.30;;;;;;;11.89;46.75;99365.44;5052084;28;20403;-59
2022/04/30 05:09:27;;;;;;;6.38;3.50;;;;;;;11.75;45.91;99363.72;5037650;28;20037;-59
2022/04/30 05:12:12;;;;;;;6.53;3.15;;;;;;;11.65;45.78;99359.03;5052839;28;20364;-58
2022/04/30 05:14:57;;;;;;;6.45;3.05;;;;;;;11.73;45.36;99358.56;5051133;28;20053;-60
2022/04/30 05:17:42;;;;;;;8.93;3.55;;;;;;;11.65;45.33;99363.47;5051102;28;20032;-59
2022/04/30 05:20:27;;;;;;;5.80;3.28;;;;;;;11.81;45.19;99358.94;5051658;28;20041;-59
2022/04/30 05:23:12;;;;;;;6.15;3.35;;;;;;;12.02;45.28;99360.25;5031727;28;20546;-58
2022/04/30 05:25:56;;;;;;;6.63;3.38;;;;;;;12.12;47.97;99364.00;5032978;28;20095;-59
2022/04/30 05:28:41;;;;;;;9.40;3.83;;;;;;;12.02;46.15;99355.84;5031725;28;20434;-58
2022/04/30 05:31:26;;;;;;;5.47;3.88;;;;;;;11.80;46.71;99364.28;5032683;28;20092;-60
2022/04/30 05:34:11;;;;;;;5.05;3.53;;;;;;;11.51;47.58;99359.94;5032771;28;20041;-56
2022/04/30 05:36:56;;;;;;;7.57;3.90;;;;;;;12.46;45.51;99360.91;5032684;28;20042;-71
2022/04/30 05:39:40;;;;;;;8.95;4.22;;;;;;;11.93;46.54;99353.81;5032792;28;20037;-70
2022/04/30 05:42:25;;;;;;;5.95;3.35;;;;;;;11.52;47.44;99364.22;5050766;28;20029;-68
2022/04/30 05:45:09;;;;;;;8.05;4.28;;;;;;;12.40;46.59;99363.94;5051889;28;20383;-68
2022/04/30 05:47:54;;;;;;;8.35;3.25;;;;;;;12.13;46.79;99367.44;5065403;28;20033;-67
2022/04/30 05:50:39;;;;;;;9.23;4.10;;;;;;;11.89;46.88;99373.31;5052700;28;20099;-69
2022/04/30 05:53:23;;;;;;;7.30;3.58;;;;;;;11.52;47.74;99374.72;5051513;28;20045;-69
2022/04/30 05:56:08;;;;;;;5.20;3.70;;;;;;;11.92;47.25;99375.75;5037018;28;20040;-70
2022/04/30 05:58:53;;;;;;;7.57;4.00;;;;;;;11.64;48.01;99374.88;5049988;28;20037;-70
2022/04/30 06:01:38;;;;;;;9.68;4.05;;;;;;;11.49;48.43;99374.09;5049977;28;20090;-68
2022/04/30 06:04:23;;;;;;;7.97;4.10;;;;;;;11.29;48.76;99373.56;5050426;28;20053;-69
2022/04/30 06:07:08;;;;;;;11.18;4.70;;;;;;;11.52;48.69;99364.22;5049007;28;20048;-68
2022/04/30 06:09:52;;;;;;;7.53;4.93;;;;;;;11.72;48.27;99362.13;5049130;28;20230;-69
2022/04/30 06:12:37;;;;;;;8.50;5.07;;;;;;;12.21;47.21;99366.97;5057490;28;20426;-67
2022/04/30 06:15:22;;;;;;;7.63;4.63;;;;;;;12.77;45.82;99369.34;5068062;28;20037;-68
2022/04/30 06:18:07;;;;;;;9.30;4.95;;;;;;;12.60;45.79;99378.38;5041276;28;20626;-67
2022/04/30 06:20:52;;;;;;;8.65;5.10;;;;;;;13.01;46.49;99378.28;5041341;28;20439;-68
2022/04/30 06:23:36;;;;;;;8.95;5.05;;;;;;;12.33;46.56;99371.41;5057549;28;20115;-69
2022/04/30 06:26:21;;;;;;;8.70;4.75;;;;;;;12.35;46.55;99376.53;5042252;28;20033;-69
2022/04/30 06:29:07;;;;;;;7.53;4.65;;;;;;;12.66;45.47;99377.97;5056193;28;20433;-68
2022/04/30 06:31:52;;;;;;;11.43;5.60;;;;;;;12.70;45.73;99378.59;5055080;28;20048;-67
2022/04/30 06:34:39;;;;;;;9.23;5.72;;;;;;;12.71;45.74;99379.44;5055191;28;20037;-70
2022/04/30 06:37:24;;;;;;;10.20;5.80;;;;;;;12.81;45.69;99378.69;5055288;28;20044;-67
2022/04/30 06:40:09;;;;;;;11.23;4.80;;;;;;;12.94;45.43;99372.63;5055192;28;20049;-68
2022/04/30 06:42:54;;;;;;;9.18;4.95;;;;;;;13.28;44.44;99382.56;5058416;28;20353;-69
2022/04/30 06:45:39;;;;;;;9.07;5.03;;;;;;;12.97;45.23;99376.81;5039675;28;20041;-69
2022/04/30 06:48:24;;;;;;;13.32;6.38;;;;;;;12.85;45.75;99368.81;5060008;28;20033;-69
2022/04/30 06:51:08;;;;;;;8.32;6.13;;;;;;;13.18;45.06;99369.22;5066040;28;20041;-69
2022/04/30 06:57:12;;;;;;;7.85;5.53;;;;;;;13.14;44.96;99367.75;5056486;28;20468;-68
2022/04/30 06:59:57;;;;;;;12.85;6.20;;;;;;;13.06;45.38;99373.53;5062414;28;20041;-71
2022/04/30 07:02:43;;;;;;;8.57;5.38;;;;;;;13.20;45.26;99367.34;5034364;28;20052;-70
2022/04/30 07:05:28;;;;;;;9.63;5.85;;;;;;;13.28;44.78;99372.91;5077363;28;20048;-70
2022/04/30 07:08:13;;;;;;;15.90;6.45;;;;;;;13.17;45.06;99375.44;5080445;28;20041;-69
2022/04/30 07:10:59;;;;;;;8.93;5.80;;;;;;;13.89;43.72;99376.53;5053419;28;20029;-69
2022/04/30 07:13:43;;;;;;;8.52;5.30;;;;;;;13.58;43.98;99375.28;5053963;28;20359;-70
2022/04/30 07:16:28;;;;;;;9.43;4.70;;;;;;;13.58;43.61;99375.28;5068220;28;20045;-71
2022/04/30 07:19:13;;;;;;;11.10;5.53;;;;;;;13.96;43.10;99379.56;5054062;28;20053;-68
2022/04/30 07:21:58;;;;;;;12.88;6.40;;;;;;;14.09;42.99;99374.22;5053674;28;20529;-71
2022/04/30 07:24:42;;;;;;;11.15;5.03;;;;;;;14.44;47.84;99375.19;5053664;28;20395;-71
2022/04/30 07:27:27;;;;;;;6.07;4.28;;;;;;;14.97;45.17;99373.03;5082302;28;20067;-72
2022/04/30 07:30:12;;;;;;;7.85;4.60;;;;;;;15.00;41.51;99376.28;5054841;28;20415;-69
2022/04/30 07:32:57;;;;;;;8.25;5.07;;;;;;;15.34;49.18;99374.59;5082022;28;20432;-65
2022/04/30 07:35:42;;;;;;;10.05;4.50;;;;;;;16.45;43.80;99373.69;5054542;28;20108;-64
2022/04/30 07:38:29;;;;;;;8.18;4.93;;;;;;;17.24;46.07;99380.28;5061892;28;20051;-64
2022/04/30 07:41:14;;;;;;;12.35;5.80;;;;;;;17.57;44.09;99377.44;5059304;28;20041;-60
2022/04/30 07:43:59;;;;;;;6.90;4.35;;;;;;;16.92;45.89;99372.44;5054557;28;20040;-59
2022/04/30 07:46:44;;;;;;;10.93;3.67;;;;;;;17.42;44.21;99370.84;5054899;28;20041;-62
2022/04/30 07:49:29;;;;;;;5.80;3.70;;;;;;;18.17;43.29;99366.91;5054978;28;20041;-65
2022/04/30 07:52:14;;;;;;;9.80;5.45;;;;;;;17.33;37.76;99365.38;5054717;28;20041;-69
2022/04/30 07:55:01;;;;;;;8.20;4.68;;;;;;;17.14;40.76;99371.44;5053979;28;20388;-66
2022/04/30 07:57:48;;;;;;;7.22;5.00;;;;;;;18.02;37.10;99364.66;5054485;28;20468;-72
2022/04/30 08:00:32;;;;;;;12.60;5.72;;;;;;;17.97;36.72;99367.72;5053211;28;20427;-68
2022/04/30 08:03:17;;;;;;;10.02;5.55;;;;;;;17.08;38.25;99372.81;5056651;28;20071;-69
2022/04/30 08:06:02;;;;;;;9.55;5.07;;;;;;;17.18;38.03;99372.88;5054819;28;20464;-67
2022/04/30 08:08:47;;;;;;;9.40;5.63;;;;;;;16.42;39.06;99374.78;5053445;28;20112;-65
2022/04/30 08:11:32;;;;;;;7.28;5.32;;;;;;;16.32;38.74;99374.69;5060633;28;20048;-69
2022/04/30 08:14:17;;;;;;;7.93;5.05;;;;;;;17.01;37.73;99368.97;5074657;28;20063;-67
2022/04/30 08:17:02;;;;;;;10.32;4.80;;;;;;;16.68;38.58;99371.75;5060799;28;20033;-68
2022/04/30 08:19:47;;;;;;;10.65;5.07;;;;;;;17.57;37.22;99366.00;5055022;28;20087;-71
2022/04/30 08:22:33;;;;;;;9.32;4.85;;;;;;;17.01;37.22;99379.56;5054066;28;20037;-71
2022/04/30 08:25:17;;;;;;;8.15;5.03;;;;;;;17.12;37.59;99365.44;5063805;28;20360;-69
2022/04/30 08:28:03;;;;;;;8.02;4.57;;;;;;;17.69;36.86;99367.53;5051124;28;20029;-71
2022/04/30 08:30:48;;;;;;;11.48;5.47;;;;;;;17.60;36.49;99363.91;5051840;28;20488;-70
2022/04/30 08:33:33;;;;;;;10.48;4.00;;;;;;;18.08;35.12;99353.50;5053774;28;20090;-71
2022/04/30 08:36:19;;;;;;;7.90;4.40;;;;;;;19.30;34.03;99363.59;5080218;28;20387;-72
2022/04/30 08:39:04;;;;;;;7.30;4.70;;;;;;;18.58;34.66;99364.94;5052711;28;20111;-70
2022/04/30 08:41:49;;;;;;;5.90;4.05;;;;;;;19.52;37.00;99358.03;5081040;28;20507;-70
2022/04/30 08:44:37;;;;;;;8.55;5.25;;;;;;;19.49;32.94;99363.66;5052955;28;20037;-71
2022/04/30 08:47:22;;;;;;;9.63;5.53;;;;;;;18.67;33.30;99354.44;5053166;28;20033;-71
2022/04/30 08:50:10;;;;;;;6.88;4.07;;;;;;;19.94;32.00;99357.44;5053205;28;20044;-71
2022/04/30 08:52:55;;;;;;;7.60;4.45;;;;;;;20.02;31.37;99350.53;5052096;28;20068;-70
2022/04/30 08:55:40;;;;;;;9.45;5.00;;;;;;;19.85;31.87;99346.88;5064603;28;20040;-71
2022/04/30 08:58:25;;;;;;;10.38;4.53;;;;;;;20.98;30.42;99347.25;5052476;28;20118;-71
2022/04/30 09:01:12;;;;;;;8.27;5.57;;;;;;;20.36;30.90;99339.22;5053292;28;20041;-70
2022/04/30 09:03:58;;;;;;;7.80;5.35;;;;;;;21.44;30.01;99338.94;5052867;28;20083;-67
2022/04/30 09:06:45;;;;;;;6.25;4.68;;;;;;;20.65;30.26;99339.88;5037681;28;20079;-71
2022/04/30 09:09:30;;;;;;;9.85;4.90;;;;;;;21.05;29.84;99337.63;5051925;28;20041;-71
2022/04/30 09:12:15;;;;;;;8.80;5.10;;;;;;;21.35;28.95;99340.72;5053169;28;20037;-70
2022/04/30 09:14:59;;;;;;;11.65;5.00;;;;;;;20.46;29.83;99339.13;5052662;28;20049;-66
2022/04/30 09:17:58;;;;;;;8.52;4.93;;;;;;;21.36;29.65;99331.75;5052620;28;20036;-70
2022/04/30 09:20:49;;;;;;;7.60;3.90;;;;;;;22.73;26.85;99331.50;5052357;28;20041;-66
2022/04/30 09:23:34;;;;;;;5.63;3.40;;;;;;;23.59;25.15;99325.47;5052912;28;20151;-66
2022/04/30 09:26:19;;;;;;;6.60;4.13;;;;;;;23.36;24.53;99328.91;5053811;28;20115;-65
2022/04/30 09:29:19;;;;;;;6.68;3.80;;;;;;;22.67;26.31;99314.31;5052700;28;20044;-66
2022/04/30 09:32:04;;;;;;;10.23;3.97;;;;;;;23.87;24.65;99319.59;5052871;28;20041;-65
2022/04/30 09:37:56;;;;;;;8.57;4.05;;;;;;;24.39;23.14;99310.13;5052898;28;20037;-65
2022/04/30 09:40:51;;;;;;;8.63;3.85;;;;;;;23.96;23.31;99319.53;5051566;28;20044;-63
2022/04/30 09:43:37;;;;;;;7.45;4.30;;;;;;;22.47;25.92;99304.00;5051625;28;20036;-66
2022/04/30 09:46:23;;;;;;;7.78;4.55;;;;;;;22.32;26.42;99308.34;5052402;28;20083;-65
2022/04/30 09:55:16;;;;;;;6.53;4.38;;;;;;;23.64;25.47;99300.88;5051734;28;20095;-66
2022/04/30 09:58:03;;;;;;;5.38;3.70;;;;;;;24.77;24.25;99290.50;5052434;28;20048;-65
2022/04/30 10:00:48;;;;;;;8.40;4.53;;;;;;;23.73;25.34;99304.31;5052447;28;20052;-66
2022/04/30 10:03:34;;;;;;;5.75;4.15;;;;;;;24.00;24.70;99299.44;5051177;28;20110;-65
2022/04/30 10:06:19;;;;;;;8.68;4.45;;;;;;;25.62;23.03;99290.09;5037456;28;20063;-66
2022/04/30 10:09:08;;;;;;;8.18;5.05;;;;;;;24.54;24.04;99284.22;5052025;28;20033;-66
2022/04/30 10:12:06;;;;;;;10.00;4.75;;;;;;;23.72;25.72;99281.25;5052197;28;20115;-64
2022/04/30 10:14:51;;;;;;;10.52;5.20;;;;;;;22.93;26.40;99286.53;5052102;28;20048;-66
2022/04/30 10:17:40;;;;;;;9.68;4.53;;;;;;;24.38;25.14;99271.84;5052089;28;20060;-66
2022/04/30 10:20:34;;;;;;;6.47;4.05;;;;;;;24.60;24.69;99275.44;5051940;28;20036;-66
2022/04/30 10:23:18;;;;;;;7.55;4.30;;;;;;;25.84;22.96;99268.59;5052182;28;20055;-65
2022/04/30 10:26:07;;;;;;;9.07;4.55;;;;;;;25.31;23.61;99273.22;5051863;28;20045;-64
2022/04/30 10:29:08;;;;;;;7.40;4.72;;;;;;;24.09;24.83;99260.06;5051668;28;20037;-66
2022/04/30 10:31:53;;;;;;;7.85;4.10;;;;;;;24.70;24.08;99280.53;5052103;28;20041;-65
2022/04/30 10:34:38;;;;;;;8.23;4.10;;;;;;;25.67;23.09;99263.50;5051267;28;20131;-66
2022/04/30 10:37:28;;;;;;;9.98;3.97;;;;;;;24.63;23.49;99265.38;5051303;28;20102;-64
2022/04/30 10:40:12;;;;;;;6.78;3.35;;;;;;;24.48;23.30;99266.22;5050832;28;20037;-64
2022/04/30 10:42:57;;;;;;;10.63;3.90;;;;;;;24.61;22.65;99268.25;5052226;28;20041;-64
2022/04/30 10:45:42;;;;;;;7.45;3.92;;;;;;;23.41;23.74;99266.09;5052192;28;20051;-66
2022/04/30 10:48:27;;;;;;;7.45;3.50;;;;;;;24.68;23.04;99258.44;5051764;28;20558;-65
2022/04/30 10:51:14;;;;;;;6.97;3.88;;;;;;;24.87;22.48;99260.75;5051762;28;20037;-66
2022/04/30 10:53:59;;;;;;;9.20;3.30;;;;;;;24.81;23.04;99262.31;5065523;28;20041;-65
2022/04/30 10:56:46;;;;;;;5.47;2.60;;;;;;;24.80;23.47;99258.81;5066724;28;20068;-62
2022/04/30 10:59:31;;;;;;;5.32;2.80;;;;;;;25.14;22.97;99250.34;5064858;28;20083;-64
2022/04/30 11:02:15;;;;;;;4.53;2.70;;;;;;;24.60;23.28;99245.16;5054586;28;20061;-66
2022/04/30 11:05:01;;;;;;;9.40;2.78;;;;;;;25.56;22.39;99239.84;5055546;28;20033;-65
2022/04/30 11:07:47;;;;;;;4.85;2.88;;;;;;;24.47;22.80;99241.28;5082908;28;20086;-65
2022/04/30 11:10:32;;;;;;;6.40;2.95;;;;;;;25.55;21.74;99239.03;5055363;28;20548;-65
2022/04/30 11:13:17;;;;;;;5.82;2.40;;;;;;;24.93;22.03;99235.91;5055150;28;20041;-65
2022/04/30 11:16:13;;;;;;;4.07;2.70;;;;;;;25.07;21.63;99236.88;5055227;28;20044;-66
2022/04/30 11:19:07;;;;;;;4.88;3.00;;;;;;;25.30;21.05;99226.00;5054333;28;20127;-65
2022/04/30 11:21:55;;;;;;;4.90;2.83;;;;;;;24.97;21.63;99211.22;5055030;28;20037;-65
2022/04/30 11:24:41;;;;;;;8.15;3.35;;;;;;;25.38;21.50;99210.81;5054081;28;20116;-65
2022/04/30 11:27:31;;;;;;;6.60;2.80;;;;;;;25.14;21.86;99204.78;5054742;28;20041;-65
2022/04/30 11:30:15;;;;;;;6.38;2.88;;;;;;;25.09;21.99;99224.97;5053469;28;20041;-65
2022/04/30 11:33:00;;;;;;;6.53;2.92;;;;;;;26.13;21.06;99206.91;5054879;28;20078;-64
2022/04/30 11:35:54;;;;;;;5.60;2.50;;;;;;;27.18;20.39;99199.72;5054017;28;20037;-65
2022/04/30 11:38:39;;;;;;;4.40;2.75;;;;;;;27.51;20.23;99190.03;5055265;28;20040;-65
2022/04/30 11:41:24;;;;;;;8.80;3.15;;;;;;;28.36;19.23;99193.06;5055111;28;20116;-63
2022/04/30 11:44:10;;;;;;;7.57;2.55;;;;;;;26.66;19.77;99198.31;5054909;28;20033;-64
2022/04/30 11:46:55;;;;;;;3.78;2.42;;;;;;;25.16;21.12;99192.88;5055011;28;20123;-66
2022/04/30 11:49:41;;;;;;;3.75;2.10;;;;;;;26.65;20.12;99191.25;5053646;28;20037;-67
2022/04/30 11:52:26;;;;;;;5.45;2.40;;;;;;;28.06;18.59;99180.91;5053740;28;20099;-63
2022/04/30 11:55:11;;;;;;;5.28;1.90;;;;;;;28.22;18.59;99181.50;5053293;28;20075;-65
2022/04/30 11:58:03;;;;;;;5.90;1.85;;;;;;;28.16;18.61;99169.69;5053603;28;20037;-64
2022/04/30 12:00:52;;;;;;;3.53;2.00;;;;;;;26.89;20.57;99186.41;5054799;28;20044;-65
2022/04/30 12:03:41;;;;;;;4.32;2.45;;;;;;;26.13;20.96;99178.19;5081778;28;20081;-65
2022/04/30 12:06:27;;;;;;;4.55;2.67;;;;;;;26.83;20.74;99176.47;5053394;28;20037;-64
2022/04/30 12:09:17;;;;;;;6.03;2.72;;;;;;;27.28;20.24;99173.28;5054251;28;20040;-65
2022/04/30 12:12:16;;;;;;;5.45;2.42;;;;;;;27.05;19.78;99157.50;5054226;28;20108;-65
2022/04/30 12:15:01;;;;;;;2.80;1.80;;;;;;;26.28;19.71;99179.91;5053822;28;20033;-63
2022/04/30 12:24:40;;;;;;;7.68;2.72;;;;;;;24.08;21.22;99184.31;5053948;28;20055;-63
2022/04/30 12:27:18;;;;;;;6.20;2.85;;;;;;;25.61;21.29;99156.16;5067285;28;20514;-63
2022/04/30 12:30:06;;;;;;;5.25;2.65;;;;;;;26.64;20.51;99145.81;5053736;28;20079;-64
2022/04/30 12:32:58;;;;;;;5.85;2.42;;;;;;;26.12;21.01;99138.97;5053590;28;20124;-64
2022/04/30 12:35:44;;;;;;;3.15;2.10;;;;;;;26.30;21.40;99141.13;5053790;28;20422;-64
2022/04/30 12:38:30;;;;;;;3.33;1.98;;;;;;;25.41;21.83;99140.72;5053745;28;20106;-63
2022/04/30 12:41:15;;;;;;;6.57;2.42;;;;;;;25.55;20.98;99137.13;5053665;28;20364;-64
2022/04/30 12:44:00;;;;;;;3.33;2.03;;;;;;;25.46;21.66;99131.06;5053818;28;20037;-65
2022/04/30 12:46:46;;;;;;;4.60;2.38;;;;;;;25.13;22.03;99134.31;5066802;28;20464;-65
2022/04/30 12:49:30;;;;;;;4.82;2.25;;;;;;;24.29;23.21;99142.63;5066693;28;20033;-63
2022/04/30 12:52:15;;;;;;;3.63;2.40;;;;;;;24.58;22.93;99135.56;5052619;28;20056;-64
2022/04/30 12:55:00;;;;;;;3.90;2.00;;;;;;;26.24;21.57;99133.03;5040600;28;20041;-64
2022/04/30 12:57:46;;;;;;;4.63;2.10;;;;;;;26.14;21.65;99130.72;5068596;28;20123;-64
2022/04/30 13:00:32;;;;;;;3.80;2.53;;;;;;;25.67;21.98;99126.72;5052380;28;20467;-64
2022/04/30 13:03:17;;;;;;;4.32;2.97;;;;;;;25.27;21.93;99115.66;5052806;28;20071;-64
2022/04/30 13:06:04;;;;;;;4.82;2.25;;;;;;;26.04;20.90;99117.66;5052564;28;20080;-64
2022/04/30 13:14:57;;;;;;;3.72;2.05;;;;;;;25.36;22.36;99111.00;5054966;28;20095;-63
2022/04/30 13:17:42;;;;;;;5.20;2.50;;;;;;;24.61;22.54;99103.06;5056025;28;20384;-64
2022/04/30 13:20:28;;;;;;;4.07;2.05;;;;;;;25.82;21.59;99097.09;5053311;28;20041;-65
2022/04/30 13:23:12;;;;;;;5.82;2.30;;;;;;;25.12;22.55;99094.31;5052461;28;20037;-64
2022/04/30 13:25:57;;;;;;;4.40;1.85;;;;;;;23.98;23.50;99100.81;5054209;28;20048;-64
2022/04/30 13:28:42;;;;;;;3.35;2.03;;;;;;;23.33;24.24;99103.94;5052450;28;20522;-64
2022/04/30 13:31:27;;;;;;;2.92;1.90;;;;;;;24.81;22.35;99085.53;5053240;28;20037;-66
2022/04/30 13:34:12;;;;;;;3.47;2.25;;;;;;;24.22;22.57;99096.22;5052594;28;20094;-65
2022/04/30 13:36:57;;;;;;;3.17;1.67;;;;;;;24.10;22.85;99087.81;5051710;28;20044;-63
2022/04/30 13:39:42;;;;;;;3.83;1.83;;;;;;;24.22;23.32;99089.00;5052969;28;20103;-65
2022/04/30 13:42:28;;;;;;;2.25;1.38;;;;;;;25.26;21.18;99074.63;5052900;28;20111;-64
2022/04/30 13:45:13;;;;;;;3.67;1.52;;;;;;;25.40;21.17;99080.91;5052482;28;20037;-65
2022/04/30 13:47:58;;;;;;;2.70;1.77;;;;;;;25.27;21.43;99073.59;5052481;28;20036;-64
2022/04/30 13:50:43;;;;;;;4.25;1.70;;;;;;;25.76;20.93;99064.88;5052483;28;20045;-66
2022/04/30 13:53:27;;;;;;;3.28;1.80;;;;;;;25.24;21.44;99065.97;5052204;28;20033;-64